sensor_id;sensor_type;location;lat;lon;timestamp;pressure;altitude;pressure_sealevel;temperature;humidity
33155;BME280;19511;42.682;23.332;2022-07-04T00:02:16;95393.56;;;21.30;100.00
33155;BME280;19511;42.682;23.332;2022-07-04T00:04:41;95408.44;;;21.21;100.00
33155;BME280;19511;42.682;23.332;2022-07-04T00:07:06;95407.03;;;21.26;100.00
33155;BME280;19511;42.682;23.332;2022-07-04T00:09:32;95410.34;;;21.15;100.00
33155;BME280;19511;42.682;23.332;2022-07-04T00:11:57;95403.84;;;20.99;100.00
33155;BME280;19511;42.682;23.332;2022-07-04T00:14:22;95398.06;;;20.94;100.00
33155;BME280;19511;42.682;23.332;2022-07-04T00:16:47;95394.63;;;20.90;100.00
33155;BME280;19511;42.682;23.332;2022-07-04T00:19:13;95397.16;;;20.87;100.00
33155;BME280;19511;42.682;23.332;2022-07-04T00:21:38;95404.78;;;20.87;100.00
33155;BME280;19511;42.682;23.332;2022-07-04T00:24:03;95401.53;;;20.79;100.00
33155;BME280;19511;42.682;23.332;2022-07-04T00:26:29;95404.81;;;20.78;100.00
33155;BME280;19511;42.682;23.332;2022-07-04T00:28:54;95404.66;;;20.72;100.00
33155;BME280;19511;42.682;23.332;2022-07-04T00:31:19;95399.69;;;20.76;100.00
33155;BME280;19511;42.682;23.332;2022-07-04T00:33:45;95402.50;;;20.76;100.00
33155;BME280;19511;42.682;23.332;2022-07-04T00:36:10;95394.69;;;20.71;100.00
33155;BME280;19511;42.682;23.332;2022-07-04T00:38:36;95385.91;;;20.78;100.00
33155;BME280;19511;42.682;23.332;2022-07-04T00:41:01;95388.13;;;20.65;100.00
33155;BME280;19511;42.682;23.332;2022-07-04T00:43:27;95385.16;;;20.68;100.00
33155;BME280;19511;42.682;23.332;2022-07-04T00:45:53;95383.91;;;20.60;100.00
33155;BME280;19511;42.682;23.332;2022-07-04T00:48:18;95375.94;;;20.59;100.00
33155;BME280;19511;42.682;23.332;2022-07-04T00:50:44;95385.63;;;20.58;100.00
33155;BME280;19511;42.682;23.332;2022-07-04T00:53:11;95382.38;;;20.50;100.00
33155;BME280;19511;42.682;23.332;2022-07-04T00:55:36;95377.84;;;20.43;100.00
33155;BME280;19511;42.682;23.332;2022-07-04T00:58:02;95389.88;;;20.44;100.00
33155;BME280;19511;42.682;23.332;2022-07-04T01:00:28;95380.66;;;20.34;100.00
33155;BME280;19511;42.682;23.332;2022-07-04T01:02:53;95380.03;;;20.30;100.00
33155;BME280;19511;42.682;23.332;2022-07-04T01:05:18;95369.28;;;20.28;100.00
33155;BME280;19511;42.682;23.332;2022-07-04T01:07:44;95375.06;;;20.25;100.00
33155;BME280;19511;42.682;23.332;2022-07-04T01:10:10;95377.22;;;20.30;100.00
33155;BME280;19511;42.682;23.332;2022-07-04T01:12:35;95371.78;;;20.26;100.00
33155;BME280;19511;42.682;23.332;2022-07-04T01:15:01;95376.63;;;20.26;100.00
33155;BME280;19511;42.682;23.332;2022-07-04T01:17:26;95374.88;;;20.37;100.00
33155;BME280;19511;42.682;23.332;2022-07-04T01:19:52;95374.75;;;20.32;100.00
33155;BME280;19511;42.682;23.332;2022-07-04T01:22:17;95378.78;;;20.31;100.00
33155;BME280;19511;42.682;23.332;2022-07-04T01:24:44;95376.78;;;20.22;100.00
33155;BME280;19511;42.682;23.332;2022-07-04T01:27:09;95380.06;;;20.20;100.00
33155;BME280;19511;42.682;23.332;2022-07-04T01:29:34;95382.25;;;20.16;100.00
33155;BME280;19511;42.682;23.332;2022-07-04T01:32:04;95381.31;;;20.19;100.00
33155;BME280;19511;42.682;23.332;2022-07-04T01:34:29;95382.22;;;20.07;100.00
33155;BME280;19511;42.682;23.332;2022-07-04T01:36:54;95383.31;;;20.10;100.00
33155;BME280;19511;42.682;23.332;2022-07-04T01:39:20;95381.63;;;20.03;100.00
33155;BME280;19511;42.682;23.332;2022-07-04T01:41:45;95379.44;;;19.98;100.00
33155;BME280;19511;42.682;23.332;2022-07-04T01:44:10;95379.56;;;20.03;100.00
33155;BME280;19511;42.682;23.332;2022-07-04T01:46:35;95385.19;;;20.03;100.00
33155;BME280;19511;42.682;23.332;2022-07-04T01:49:01;95386.91;;;20.01;100.00
33155;BME280;19511;42.682;23.332;2022-07-04T01:51:27;95380.03;;;20.02;100.00
33155;BME280;19511;42.682;23.332;2022-07-04T01:53:53;95383.16;;;19.95;100.00
33155;BME280;19511;42.682;23.332;2022-07-04T01:59:13;95381.88;;;19.77;100.00
33155;BME280;19511;42.682;23.332;2022-07-04T02:01:46;95370.00;;;19.64;100.00
33155;BME280;19511;42.682;23.332;2022-07-04T02:04:11;95381.69;;;19.62;100.00
33155;BME280;19511;42.682;23.332;2022-07-04T02:06:37;95376.84;;;19.63;100.00
33155;BME280;19511;42.682;23.332;2022-07-04T02:09:03;95381.22;;;19.64;100.00
33155;BME280;19511;42.682;23.332;2022-07-04T02:11:41;95385.88;;;19.57;100.00
33155;BME280;19511;42.682;23.332;2022-07-04T02:14:25;95386.38;;;19.65;100.00
33155;BME280;19511;42.682;23.332;2022-07-04T02:16:50;95392.25;;;19.49;100.00
33155;BME280;19511;42.682;23.332;2022-07-04T02:19:15;95388.69;;;19.57;100.00
33155;BME280;19511;42.682;23.332;2022-07-04T02:21:41;95392.13;;;19.62;100.00
33155;BME280;19511;42.682;23.332;2022-07-04T02:24:06;95390.25;;;19.49;100.00
33155;BME280;19511;42.682;23.332;2022-07-04T02:26:31;95399.56;;;19.46;100.00
33155;BME280;19511;42.682;23.332;2022-07-04T02:28:56;95392.25;;;19.49;100.00
33155;BME280;19511;42.682;23.332;2022-07-04T02:31:22;95394.78;;;19.65;100.00
33155;BME280;19511;42.682;23.332;2022-07-04T02:33:47;95401.16;;;19.56;100.00
33155;BME280;19511;42.682;23.332;2022-07-04T02:36:12;95395.41;;;19.60;100.00
33155;BME280;19511;42.682;23.332;2022-07-04T02:38:38;95385.25;;;19.53;100.00
33155;BME280;19511;42.682;23.332;2022-07-04T02:41:03;95387.91;;;19.48;100.00
33155;BME280;19511;42.682;23.332;2022-07-04T02:43:28;95395.50;;;19.38;100.00
33155;BME280;19511;42.682;23.332;2022-07-04T02:45:54;95396.72;;;19.28;100.00
33155;BME280;19511;42.682;23.332;2022-07-04T02:48:19;95398.25;;;19.19;100.00
33155;BME280;19511;42.682;23.332;2022-07-04T02:53:12;95401.03;;;19.10;100.00
33155;BME280;19511;42.682;23.332;2022-07-04T02:55:37;95406.50;;;19.14;100.00
33155;BME280;19511;42.682;23.332;2022-07-04T02:58:03;95406.75;;;19.06;100.00
33155;BME280;19511;42.682;23.332;2022-07-04T03:00:28;95409.09;;;19.08;100.00
33155;BME280;19511;42.682;23.332;2022-07-04T03:02:53;95411.44;;;19.09;100.00
33155;BME280;19511;42.682;23.332;2022-07-04T03:05:24;95405.81;;;19.09;100.00
33155;BME280;19511;42.682;23.332;2022-07-04T03:07:49;95419.84;;;19.09;100.00
33155;BME280;19511;42.682;23.332;2022-07-04T03:10:14;95419.72;;;19.13;100.00
33155;BME280;19511;42.682;23.332;2022-07-04T03:12:40;95425.63;;;19.06;100.00
33155;BME280;19511;42.682;23.332;2022-07-04T03:15:05;95431.34;;;19.02;100.00
33155;BME280;19511;42.682;23.332;2022-07-04T03:17:30;95425.25;;;18.95;100.00
33155;BME280;19511;42.682;23.332;2022-07-04T03:19:56;95418.97;;;18.90;100.00
33155;BME280;19511;42.682;23.332;2022-07-04T03:22:21;95433.25;;;18.83;100.00
33155;BME280;19511;42.682;23.332;2022-07-04T03:24:47;95431.34;;;18.80;100.00
33155;BME280;19511;42.682;23.332;2022-07-04T03:27:12;95434.28;;;18.76;100.00
33155;BME280;19511;42.682;23.332;2022-07-04T03:29:38;95429.13;;;18.75;100.00
33155;BME280;19511;42.682;23.332;2022-07-04T03:32:03;95436.31;;;18.76;100.00
33155;BME280;19511;42.682;23.332;2022-07-04T03:34:28;95432.41;;;18.73;100.00
33155;BME280;19511;42.682;23.332;2022-07-04T03:36:54;95421.97;;;18.74;100.00
33155;BME280;19511;42.682;23.332;2022-07-04T03:39:19;95435.38;;;18.79;100.00
33155;BME280;19511;42.682;23.332;2022-07-04T03:41:52;95431.69;;;18.82;100.00
33155;BME280;19511;42.682;23.332;2022-07-04T03:44:17;95429.91;;;18.98;100.00
33155;BME280;19511;42.682;23.332;2022-07-04T03:46:42;95422.44;;;18.95;100.00
33155;BME280;19511;42.682;23.332;2022-07-04T03:49:08;95423.81;;;18.90;100.00
33155;BME280;19511;42.682;23.332;2022-07-04T03:51:33;95417.13;;;18.97;100.00
33155;BME280;19511;42.682;23.332;2022-07-04T03:53:59;95416.88;;;19.04;100.00
33155;BME280;19511;42.682;23.332;2022-07-04T03:56:24;95420.06;;;19.24;100.00
33155;BME280;19511;42.682;23.332;2022-07-04T03:58:49;95412.81;;;19.36;100.00
33155;BME280;19511;42.682;23.332;2022-07-04T04:01:15;95405.19;;;19.46;100.00
33155;BME280;19511;42.682;23.332;2022-07-04T04:03:41;95416.47;;;19.65;100.00
33155;BME280;19511;42.682;23.332;2022-07-04T04:06:25;95417.72;;;19.73;100.00
33155;BME280;19511;42.682;23.332;2022-07-04T04:08:50;95412.09;;;19.64;100.00
33155;BME280;19511;42.682;23.332;2022-07-04T04:11:16;95421.72;;;19.53;100.00
33155;BME280;19511;42.682;23.332;2022-07-04T04:13:41;95419.56;;;19.57;100.00
33155;BME280;19511;42.682;23.332;2022-07-04T04:16:06;95425.53;;;19.78;100.00
33155;BME280;19511;42.682;23.332;2022-07-04T04:18:32;95417.16;;;20.06;100.00
33155;BME280;19511;42.682;23.332;2022-07-04T04:20:57;95430.28;;;20.46;100.00
33155;BME280;19511;42.682;23.332;2022-07-04T04:23:22;95425.88;;;20.92;100.00
33155;BME280;19511;42.682;23.332;2022-07-04T04:25:48;95423.53;;;21.33;100.00
33155;BME280;19511;42.682;23.332;2022-07-04T04:28:13;95429.09;;;21.51;100.00
33155;BME280;19511;42.682;23.332;2022-07-04T04:30:38;95429.50;;;21.35;100.00
33155;BME280;19511;42.682;23.332;2022-07-04T04:33:04;95429.50;;;21.35;100.00
33155;BME280;19511;42.682;23.332;2022-07-04T04:35:29;95424.56;;;21.11;100.00
33155;BME280;19511;42.682;23.332;2022-07-04T04:37:54;95429.88;;;21.18;100.00
33155;BME280;19511;42.682;23.332;2022-07-04T04:40:19;95422.59;;;20.93;100.00
33155;BME280;19511;42.682;23.332;2022-07-04T04:42:45;95441.22;;;20.81;100.00
33155;BME280;19511;42.682;23.332;2022-07-04T04:45:10;95438.69;;;20.93;100.00
33155;BME280;19511;42.682;23.332;2022-07-04T04:47:35;95435.41;;;20.94;100.00
33155;BME280;19511;42.682;23.332;2022-07-04T04:50:01;95434.16;;;20.86;100.00
33155;BME280;19511;42.682;23.332;2022-07-04T04:52:26;95435.88;;;20.83;100.00
33155;BME280;19511;42.682;23.332;2022-07-04T04:54:51;95431.19;;;20.99;100.00
33155;BME280;19511;42.682;23.332;2022-07-04T04:57:17;95425.72;;;20.95;100.00
33155;BME280;19511;42.682;23.332;2022-07-04T04:59:42;95434.00;;;20.90;100.00
33155;BME280;19511;42.682;23.332;2022-07-04T05:02:08;95434.94;;;20.86;100.00
33155;BME280;19511;42.682;23.332;2022-07-04T05:04:33;95429.94;;;20.91;100.00
33155;BME280;19511;42.682;23.332;2022-07-04T05:06:58;95440.50;;;21.14;100.00
33155;BME280;19511;42.682;23.332;2022-07-04T05:09:24;95434.38;;;21.25;100.00
33155;BME280;19511;42.682;23.332;2022-07-04T05:11:49;95428.53;;;21.38;100.00
33155;BME280;19511;42.682;23.332;2022-07-04T05:14:14;95428.19;;;21.45;100.00
33155;BME280;19511;42.682;23.332;2022-07-04T05:16:40;95419.69;;;21.54;100.00
33155;BME280;19511;42.682;23.332;2022-07-04T05:19:05;95424.84;;;21.65;100.00
33155;BME280;19511;42.682;23.332;2022-07-04T05:21:31;95429.88;;;21.61;100.00
33155;BME280;19511;42.682;23.332;2022-07-04T05:23:56;95422.13;;;21.71;100.00
33155;BME280;19511;42.682;23.332;2022-07-04T05:26:22;95423.94;;;21.83;100.00
33155;BME280;19511;42.682;23.332;2022-07-04T05:28:47;95392.31;;;21.64;100.00
33155;BME280;19511;42.682;23.332;2022-07-04T05:31:13;95424.09;;;21.89;100.00
33155;BME280;19511;42.682;23.332;2022-07-04T05:33:38;95430.06;;;22.06;100.00
33155;BME280;19511;42.682;23.332;2022-07-04T05:36:03;95436.28;;;22.10;100.00
33155;BME280;19511;42.682;23.332;2022-07-04T05:38:29;95429.53;;;22.17;100.00
33155;BME280;19511;42.682;23.332;2022-07-04T05:40:54;95428.00;;;22.07;100.00
33155;BME280;19511;42.682;23.332;2022-07-04T05:43:19;95433.19;;;22.08;100.00
33155;BME280;19511;42.682;23.332;2022-07-04T05:45:46;95426.88;;;22.13;100.00
33155;BME280;19511;42.682;23.332;2022-07-04T05:48:13;95428.16;;;22.12;100.00
33155;BME280;19511;42.682;23.332;2022-07-04T05:50:38;95425.31;;;22.12;100.00
33155;BME280;19511;42.682;23.332;2022-07-04T05:53:03;95424.50;;;21.97;100.00
33155;BME280;19511;42.682;23.332;2022-07-04T05:55:29;95421.34;;;22.19;100.00
33155;BME280;19511;42.682;23.332;2022-07-04T05:57:54;95424.75;;;22.23;100.00
33155;BME280;19511;42.682;23.332;2022-07-04T06:00:20;95432.63;;;22.19;100.00
33155;BME280;19511;42.682;23.332;2022-07-04T06:02:45;95430.63;;;22.34;100.00
33155;BME280;19511;42.682;23.332;2022-07-04T06:05:10;95425.41;;;22.42;100.00
33155;BME280;19511;42.682;23.332;2022-07-04T06:07:36;95422.81;;;22.54;100.00
33155;BME280;19511;42.682;23.332;2022-07-04T06:10:02;95429.75;;;22.53;100.00
33155;BME280;19511;42.682;23.332;2022-07-04T06:12:27;95434.25;;;22.74;100.00
33155;BME280;19511;42.682;23.332;2022-07-04T06:14:53;95430.94;;;22.91;100.00
33155;BME280;19511;42.682;23.332;2022-07-04T06:17:19;95433.16;;;22.87;100.00
33155;BME280;19511;42.682;23.332;2022-07-04T06:19:44;95427.25;;;22.99;100.00
33155;BME280;19511;42.682;23.332;2022-07-04T06:22:12;95426.75;;;23.01;100.00
33155;BME280;19511;42.682;23.332;2022-07-04T06:24:38;95428.88;;;22.91;100.00
33155;BME280;19511;42.682;23.332;2022-07-04T06:27:03;95421.13;;;23.01;100.00
33155;BME280;19511;42.682;23.332;2022-07-04T06:29:28;95418.19;;;23.10;100.00
33155;BME280;19511;42.682;23.332;2022-07-04T06:31:54;95423.84;;;23.10;100.00
33155;BME280;19511;42.682;23.332;2022-07-04T06:34:19;95424.53;;;23.20;100.00
33155;BME280;19511;42.682;23.332;2022-07-04T06:37:03;95417.41;;;23.25;100.00
33155;BME280;19511;42.682;23.332;2022-07-04T06:39:28;95416.84;;;23.21;100.00
33155;BME280;19511;42.682;23.332;2022-07-04T06:41:54;95413.50;;;23.37;100.00
33155;BME280;19511;42.682;23.332;2022-07-04T06:44:19;95418.75;;;23.44;100.00
33155;BME280;19511;42.682;23.332;2022-07-04T06:46:44;95424.28;;;23.54;100.00
33155;BME280;19511;42.682;23.332;2022-07-04T06:49:11;95414.84;;;23.57;100.00
33155;BME280;19511;42.682;23.332;2022-07-04T06:51:36;95409.13;;;23.72;100.00
33155;BME280;19511;42.682;23.332;2022-07-04T06:54:01;95405.94;;;23.64;100.00
33155;BME280;19511;42.682;23.332;2022-07-04T06:56:26;95407.44;;;23.59;100.00
33155;BME280;19511;42.682;23.332;2022-07-04T06:58:52;95410.09;;;23.84;100.00
33155;BME280;19511;42.682;23.332;2022-07-04T07:01:17;95400.22;;;23.94;100.00
33155;BME280;19511;42.682;23.332;2022-07-04T07:03:42;95402.00;;;24.12;100.00
33155;BME280;19511;42.682;23.332;2022-07-04T07:06:08;95397.47;;;24.00;100.00
33155;BME280;19511;42.682;23.332;2022-07-04T07:08:33;95399.38;;;24.08;100.00
33155;BME280;19511;42.682;23.332;2022-07-04T07:10:59;95387.94;;;24.18;100.00
33155;BME280;19511;42.682;23.332;2022-07-04T07:13:40;95397.38;;;24.35;100.00
33155;BME280;19511;42.682;23.332;2022-07-04T07:16:06;95395.53;;;24.53;100.00
33155;BME280;19511;42.682;23.332;2022-07-04T07:18:31;95391.72;;;24.56;100.00
33155;BME280;19511;42.682;23.332;2022-07-04T07:20:56;95385.09;;;24.38;100.00
33155;BME280;19511;42.682;23.332;2022-07-04T07:23:22;95382.19;;;24.53;100.00
33155;BME280;19511;42.682;23.332;2022-07-04T07:25:47;95385.91;;;24.65;100.00
33155;BME280;19511;42.682;23.332;2022-07-04T07:28:12;95376.84;;;24.61;100.00
33155;BME280;19511;42.682;23.332;2022-07-04T07:30:38;95388.47;;;24.89;100.00
33155;BME280;19511;42.682;23.332;2022-07-04T07:33:03;95382.16;;;25.06;100.00
33155;BME280;19511;42.682;23.332;2022-07-04T07:35:29;95381.75;;;25.19;100.00
33155;BME280;19511;42.682;23.332;2022-07-04T07:37:54;95381.00;;;25.18;100.00
33155;BME280;19511;42.682;23.332;2022-07-04T07:40:19;95376.41;;;25.26;100.00
33155;BME280;19511;42.682;23.332;2022-07-04T07:42:45;95371.66;;;25.38;100.00
33155;BME280;19511;42.682;23.332;2022-07-04T07:45:10;95370.63;;;25.41;100.00
33155;BME280;19511;42.682;23.332;2022-07-04T07:47:35;95370.41;;;25.45;100.00
33155;BME280;19511;42.682;23.332;2022-07-04T07:50:01;95374.59;;;25.55;100.00
33155;BME280;19511;42.682;23.332;2022-07-04T07:52:28;95371.47;;;25.53;100.00
33155;BME280;19511;42.682;23.332;2022-07-04T07:54:54;95371.91;;;25.84;100.00
33155;BME280;19511;42.682;23.332;2022-07-04T07:57:19;95361.94;;;25.94;100.00
33155;BME280;19511;42.682;23.332;2022-07-04T07:59:44;95361.69;;;26.03;100.00
33155;BME280;19511;42.682;23.332;2022-07-04T08:02:09;95367.44;;;26.15;100.00
33155;BME280;19511;42.682;23.332;2022-07-04T08:04:35;95358.75;;;26.30;100.00
33155;BME280;19511;42.682;23.332;2022-07-04T08:07:07;95356.19;;;26.37;100.00
33155;BME280;19511;42.682;23.332;2022-07-04T08:09:34;95358.47;;;26.33;100.00
33155;BME280;19511;42.682;23.332;2022-07-04T08:11:59;95359.25;;;26.39;100.00
33155;BME280;19511;42.682;23.332;2022-07-04T08:14:26;95361.91;;;26.60;100.00
33155;BME280;19511;42.682;23.332;2022-07-04T08:16:51;95359.06;;;26.71;98.21
33155;BME280;19511;42.682;23.332;2022-07-04T08:19:17;95357.78;;;26.72;98.29
33155;BME280;19511;42.682;23.332;2022-07-04T08:21:42;95356.81;;;26.87;98.85
33155;BME280;19511;42.682;23.332;2022-07-04T08:24:07;95361.97;;;26.94;97.28
33155;BME280;19511;42.682;23.332;2022-07-04T08:26:33;95351.16;;;26.98;97.66
33155;BME280;19511;42.682;23.332;2022-07-04T08:28:58;95353.44;;;27.05;99.62
33155;BME280;19511;42.682;23.332;2022-07-04T08:31:24;95350.09;;;27.13;100.00
33155;BME280;19511;42.682;23.332;2022-07-04T08:33:50;95341.59;;;26.96;99.59
33155;BME280;19511;42.682;23.332;2022-07-04T08:36:15;95350.34;;;27.09;100.00
33155;BME280;19511;42.682;23.332;2022-07-04T08:38:40;95336.69;;;27.19;100.00
33155;BME280;19511;42.682;23.332;2022-07-04T08:41:06;95338.25;;;27.43;100.00
33155;BME280;19511;42.682;23.332;2022-07-04T08:43:31;95344.41;;;27.58;100.00
33155;BME280;19511;42.682;23.332;2022-07-04T08:46:03;95340.50;;;27.61;100.00
33155;BME280;19511;42.682;23.332;2022-07-04T08:48:28;95334.25;;;27.85;100.00
33155;BME280;19511;42.682;23.332;2022-07-04T08:50:55;95336.00;;;27.94;100.00
33155;BME280;19511;42.682;23.332;2022-07-04T08:53:22;95331.91;;;27.84;100.00
33155;BME280;19511;42.682;23.332;2022-07-04T08:55:52;95330.31;;;28.06;100.00
33155;BME280;19511;42.682;23.332;2022-07-04T08:58:37;95332.28;;;28.28;100.00
33155;BME280;19511;42.682;23.332;2022-07-04T09:01:06;95333.75;;;28.46;98.88
33155;BME280;19511;42.682;23.332;2022-07-04T09:03:40;95329.91;;;28.38;100.00
33155;BME280;19511;42.682;23.332;2022-07-04T09:06:07;95328.34;;;28.37;99.49
33155;BME280;19511;42.682;23.332;2022-07-04T09:08:32;95324.75;;;28.36;100.00
33155;BME280;19511;42.682;23.332;2022-07-04T09:10:58;95320.56;;;28.43;100.00
33155;BME280;19511;42.682;23.332;2022-07-04T09:13:24;95323.31;;;28.60;100.00
33155;BME280;19511;42.682;23.332;2022-07-04T09:15:50;95321.22;;;28.60;100.00
33155;BME280;19511;42.682;23.332;2022-07-04T09:18:20;95320.34;;;28.82;96.81
33155;BME280;19511;42.682;23.332;2022-07-04T09:20:46;95319.00;;;28.83;98.03
33155;BME280;19511;42.682;23.332;2022-07-04T09:23:18;95313.00;;;28.93;96.20
33155;BME280;19511;42.682;23.332;2022-07-04T09:25:44;95319.38;;;29.05;91.04
33155;BME280;19511;42.682;23.332;2022-07-04T09:28:09;95317.00;;;29.09;92.08
33155;BME280;19511;42.682;23.332;2022-07-04T09:30:34;95313.47;;;29.27;92.22
33155;BME280;19511;42.682;23.332;2022-07-04T09:33:11;95312.44;;;29.30;91.72
33155;BME280;19511;42.682;23.332;2022-07-04T09:35:36;95312.97;;;29.29;94.97
33155;BME280;19511;42.682;23.332;2022-07-04T09:38:05;95310.38;;;29.25;93.29
33155;BME280;19511;42.682;23.332;2022-07-04T09:42:56;95301.38;;;29.21;91.71
33155;BME280;19511;42.682;23.332;2022-07-04T09:45:22;95301.28;;;29.32;91.43
33155;BME280;19511;42.682;23.332;2022-07-04T09:47:50;95293.72;;;29.41;84.60
33155;BME280;19511;42.682;23.332;2022-07-04T09:50:16;95301.31;;;29.57;85.80
33155;BME280;19511;42.682;23.332;2022-07-04T09:53:02;95299.09;;;29.44;85.38
33155;BME280;19511;42.682;23.332;2022-07-04T09:57:54;95303.56;;;29.40;89.75
33155;BME280;19511;42.682;23.332;2022-07-04T10:00:27;95294.28;;;29.34;92.14
33155;BME280;19511;42.682;23.332;2022-07-04T10:02:53;95291.72;;;29.30;90.85
33155;BME280;19511;42.682;23.332;2022-07-04T10:05:22;95295.75;;;29.40;89.48
33155;BME280;19511;42.682;23.332;2022-07-04T10:07:48;95298.97;;;29.56;92.25
33155;BME280;19511;42.682;23.332;2022-07-04T10:10:28;95296.94;;;29.51;90.49
33155;BME280;19511;42.682;23.332;2022-07-04T10:12:55;95296.47;;;29.46;86.88
33155;BME280;19511;42.682;23.332;2022-07-04T10:15:21;95299.13;;;29.63;87.51
33155;BME280;19511;42.682;23.332;2022-07-04T10:17:46;95291.53;;;29.72;88.17
33155;BME280;19511;42.682;23.332;2022-07-04T10:20:12;95287.75;;;29.88;90.42
33155;BME280;19511;42.682;23.332;2022-07-04T10:22:38;95294.22;;;30.08;95.14
33155;BME280;19511;42.682;23.332;2022-07-04T10:25:04;95288.47;;;29.94;92.69
33155;BME280;19511;42.682;23.332;2022-07-04T10:27:29;95286.00;;;30.04;87.59
33155;BME280;19511;42.682;23.332;2022-07-04T10:29:55;95292.47;;;30.05;89.99
33155;BME280;19511;42.682;23.332;2022-07-04T10:32:21;95284.38;;;30.09;92.50
33155;BME280;19511;42.682;23.332;2022-07-04T10:34:46;95280.47;;;30.12;90.09
33155;BME280;19511;42.682;23.332;2022-07-04T10:37:11;95274.81;;;30.25;90.14
33155;BME280;19511;42.682;23.332;2022-07-04T10:39:38;95273.75;;;30.28;91.44
33155;BME280;19511;42.682;23.332;2022-07-04T10:42:03;95268.41;;;30.38;91.23
33155;BME280;19511;42.682;23.332;2022-07-04T10:44:31;95273.28;;;30.24;87.71
33155;BME280;19511;42.682;23.332;2022-07-04T10:47:02;95265.09;;;30.34;87.24
33155;BME280;19511;42.682;23.332;2022-07-04T10:49:28;95265.56;;;30.38;90.77
33155;BME280;19511;42.682;23.332;2022-07-04T10:54:43;95263.81;;;30.54;88.93
33155;BME280;19511;42.682;23.332;2022-07-04T10:59:36;95261.69;;;30.55;85.86
33155;BME280;19511;42.682;23.332;2022-07-04T11:07:19;95258.38;;;30.70;88.14
33155;BME280;19511;42.682;23.332;2022-07-04T11:09:44;95239.44;;;30.86;86.79
33155;BME280;19511;42.682;23.332;2022-07-04T11:12:13;95239.19;;;30.84;86.83
33155;BME280;19511;42.682;23.332;2022-07-04T11:14:40;95246.75;;;30.81;84.23
33155;BME280;19511;42.682;23.332;2022-07-04T11:19:37;95240.00;;;30.65;84.74
33155;BME280;19511;42.682;23.332;2022-07-04T11:22:04;95240.00;;;30.65;88.00
33155;BME280;19511;42.682;23.332;2022-07-04T11:24:30;95231.31;;;30.57;87.33
33155;BME280;19511;42.682;23.332;2022-07-04T11:26:55;95236.38;;;30.65;88.92
33155;BME280;19511;42.682;23.332;2022-07-04T11:29:20;95239.06;;;30.76;89.49
33155;BME280;19511;42.682;23.332;2022-07-04T11:31:47;95236.31;;;30.51;91.88
33155;BME280;19511;42.682;23.332;2022-07-04T11:34:14;95234.78;;;30.69;87.06
33155;BME280;19511;42.682;23.332;2022-07-04T11:36:41;95232.28;;;30.92;87.70
33155;BME280;19511;42.682;23.332;2022-07-04T11:39:10;95234.13;;;31.09;89.18
33155;BME280;19511;42.682;23.332;2022-07-04T11:41:38;95227.63;;;31.22;81.66
33155;BME280;19511;42.682;23.332;2022-07-04T11:44:23;95232.00;;;31.09;85.40
33155;BME280;19511;42.682;23.332;2022-07-04T11:47:23;95223.50;;;30.90;87.36
33155;BME280;19511;42.682;23.332;2022-07-04T11:49:56;95215.84;;;30.99;86.71
33155;BME280;19511;42.682;23.332;2022-07-04T11:52:23;95212.69;;;30.70;87.66
33155;BME280;19511;42.682;23.332;2022-07-04T11:54:49;95210.00;;;30.91;88.77
33155;BME280;19511;42.682;23.332;2022-07-04T11:57:16;95204.66;;;31.14;86.96
33155;BME280;19511;42.682;23.332;2022-07-04T11:59:42;95202.47;;;31.20;87.87
33155;BME280;19511;42.682;23.332;2022-07-04T12:02:15;95202.38;;;31.39;87.93
33155;BME280;19511;42.682;23.332;2022-07-04T12:04:41;95197.88;;;31.44;86.60
33155;BME280;19511;42.682;23.332;2022-07-04T12:07:11;95195.44;;;31.62;84.49
33155;BME280;19511;42.682;23.332;2022-07-04T12:09:37;95180.91;;;31.73;81.31
33155;BME280;19511;42.682;23.332;2022-07-04T12:12:02;95192.59;;;31.75;83.41
33155;BME280;19511;42.682;23.332;2022-07-04T12:14:27;95184.34;;;31.58;85.39
33155;BME280;19511;42.682;23.332;2022-07-04T12:19:36;95194.13;;;31.22;86.88
33155;BME280;19511;42.682;23.332;2022-07-04T12:22:02;95184.69;;;31.27;87.29
33155;BME280;19511;42.682;23.332;2022-07-04T12:24:28;95182.81;;;31.57;85.71
33155;BME280;19511;42.682;23.332;2022-07-04T12:26:53;95182.66;;;31.89;85.77
33155;BME280;19511;42.682;23.332;2022-07-04T12:29:22;95171.25;;;31.63;86.17
33155;BME280;19511;42.682;23.332;2022-07-04T12:31:50;95183.50;;;30.90;90.51
33155;BME280;19511;42.682;23.332;2022-07-04T12:34:19;95174.91;;;31.23;90.50
33155;BME280;19511;42.682;23.332;2022-07-04T12:36:48;95169.50;;;31.59;88.32
33155;BME280;19511;42.682;23.332;2022-07-04T12:39:26;95166.44;;;31.31;89.52
33155;BME280;19511;42.682;23.332;2022-07-04T12:42:02;95163.78;;;31.59;89.74
33155;BME280;19511;42.682;23.332;2022-07-04T12:44:27;95167.94;;;31.85;88.85
33155;BME280;19511;42.682;23.332;2022-07-04T12:46:55;95159.34;;;31.85;83.09
33155;BME280;19511;42.682;23.332;2022-07-04T12:49:21;95163.16;;;32.01;83.64
33155;BME280;19511;42.682;23.332;2022-07-04T12:51:46;95159.69;;;31.55;88.20
33155;BME280;19511;42.682;23.332;2022-07-04T12:54:11;95160.16;;;31.72;86.53
33155;BME280;19511;42.682;23.332;2022-07-04T12:56:38;95158.94;;;31.68;90.19
33155;BME280;19511;42.682;23.332;2022-07-04T13:01:29;95171.81;;;31.34;90.15
33155;BME280;19511;42.682;23.332;2022-07-04T13:03:54;95161.91;;;31.49;89.92
33155;BME280;19511;42.682;23.332;2022-07-04T13:06:19;95160.81;;;31.65;87.69
33155;BME280;19511;42.682;23.332;2022-07-04T13:08:45;95161.09;;;31.88;86.34